sensor_id;sensor_type;location;lat;lon;timestamp;pressure;altitude;pressure_sealevel;temperature;humidity
71996;BME280;59862;47.732;7.346;2022-11-20T00:01:15;97787.46;;;4.67;89.10
71996;BME280;59862;47.732;7.346;2022-11-20T00:03:43;97789.44;;;4.65;89.18
71996;BME280;59862;47.732;7.346;2022-11-20T00:06:13;97787.59;;;4.61;89.20
71996;BME280;59862;47.732;7.346;2022-11-20T00:08:42;97791.02;;;4.57;89.21
71996;BME280;59862;47.732;7.346;2022-11-20T00:11:14;97792.70;;;4.58;89.24
71996;BME280;59862;47.732;7.346;2022-11-20T00:13:45;97787.00;;;4.53;89.29
71996;BME280;59862;47.732;7.346;2022-11-20T00:16:15;97786.61;;;4.48;89.35
71996;BME280;59862;47.732;7.346;2022-11-20T00:18:43;97786.61;;;4.48;89.41
71996;BME280;59862;47.732;7.346;2022-11-20T00:21:26;97788.55;;;4.42;89.46
71996;BME280;59862;47.732;7.346;2022-11-20T00:23:55;97795.38;;;4.45;89.60
71996;BME280;59862;47.732;7.346;2022-11-20T00:26:25;97797.39;;;4.47;89.66
71996;BME280;59862;47.732;7.346;2022-11-20T00:29:00;97805.52;;;4.45;89.69
71996;BME280;59862;47.732;7.346;2022-11-20T00:31:24;97795.26;;;4.50;89.65
71996;BME280;59862;47.732;7.346;2022-11-20T00:33:52;97795.33;;;4.54;89.61
71996;BME280;59862;47.732;7.346;2022-11-20T00:36:21;97792.38;;;4.61;89.44
71996;BME280;59862;47.732;7.346;2022-11-20T00:38:53;97786.91;;;4.59;89.29
71996;BME280;59862;47.732;7.346;2022-11-20T00:41:22;97788.11;;;4.65;89.16
71996;BME280;59862;47.732;7.346;2022-11-20T00:43:52;97792.48;;;4.70;89.04
71996;BME280;59862;47.732;7.346;2022-11-20T00:46:22;97800.94;;;4.69;88.83
71996;BME280;59862;47.732;7.346;2022-11-20T00:48:50;97804.12;;;4.73;88.72
71996;BME280;59862;47.732;7.346;2022-11-20T00:51:21;97799.45;;;4.71;88.61
71996;BME280;59862;47.732;7.346;2022-11-20T00:53:49;97805.61;;;4.71;88.58
71996;BME280;59862;47.732;7.346;2022-11-20T00:56:18;97806.13;;;4.75;88.56
71996;BME280;59862;47.732;7.346;2022-11-20T00:58:47;97808.23;;;4.85;88.45
71996;BME280;59862;47.732;7.346;2022-11-20T01:01:24;97813.20;;;4.84;88.23
71996;BME280;59862;47.732;7.346;2022-11-20T01:03:54;97817.67;;;4.83;88.23
71996;BME280;59862;47.732;7.346;2022-11-20T01:06:24;97816.56;;;4.90;88.13
71996;BME280;59862;47.732;7.346;2022-11-20T01:08:55;97807.27;;;4.90;88.08
71996;BME280;59862;47.732;7.346;2022-11-20T01:11:29;97810.31;;;4.95;88.00
71996;BME280;59862;47.732;7.346;2022-11-20T01:13:57;97805.70;;;5.01;87.93
71996;BME280;59862;47.732;7.346;2022-11-20T01:16:31;97810.15;;;4.96;87.85
71996;BME280;59862;47.732;7.346;2022-11-20T01:19:02;97805.73;;;5.05;87.83
71996;BME280;59862;47.732;7.346;2022-11-20T01:21:35;97809.56;;;5.02;87.78
71996;BME280;59862;47.732;7.346;2022-11-20T01:24:04;97818.25;;;5.08;87.74
71996;BME280;59862;47.732;7.346;2022-11-20T01:26:35;97820.55;;;5.07;87.68
71996;BME280;59862;47.732;7.346;2022-11-20T01:29:04;97821.09;;;5.11;87.70
71996;BME280;59862;47.732;7.346;2022-11-20T01:31:34;97820.77;;;5.14;87.68
71996;BME280;59862;47.732;7.346;2022-11-20T01:34:05;97820.77;;;5.14;87.72
71996;BME280;59862;47.732;7.346;2022-11-20T01:36:34;97823.98;;;5.17;87.70
71996;BME280;59862;47.732;7.346;2022-11-20T01:39:26;97821.48;;;5.20;87.69
71996;BME280;59862;47.732;7.346;2022-11-20T01:41:34;97817.88;;;5.25;87.66
71996;BME280;59862;47.732;7.346;2022-11-20T01:44:23;97813.04;;;5.24;87.63
71996;BME280;59862;47.732;7.346;2022-11-20T01:47:01;97809.22;;;5.23;87.78
71996;BME280;59862;47.732;7.346;2022-11-20T01:49:33;97810.19;;;5.22;88.00
71996;BME280;59862;47.732;7.346;2022-11-20T01:52:05;97805.84;;;5.17;88.22
71996;BME280;59862;47.732;7.346;2022-11-20T01:54:46;97808.80;;;5.14;88.38
71996;BME280;59862;47.732;7.346;2022-11-20T01:57:11;97810.98;;;5.14;88.42
71996;BME280;59862;47.732;7.346;2022-11-20T01:59:43;97804.19;;;4.98;88.75
71996;BME280;59862;47.732;7.346;2022-11-20T02:02:09;97809.62;;;4.93;88.87
71996;BME280;59862;47.732;7.346;2022-11-20T02:04:37;97812.91;;;4.87;89.22
71996;BME280;59862;47.732;7.346;2022-11-20T02:07:05;97812.87;;;4.83;89.42
71996;BME280;59862;47.732;7.346;2022-11-20T02:09:33;97815.43;;;4.75;89.71
71996;BME280;59862;47.732;7.346;2022-11-20T02:12:00;97814.06;;;4.71;89.96
71996;BME280;59862;47.732;7.346;2022-11-20T02:14:29;97816.53;;;4.68;90.17
71996;BME280;59862;47.732;7.346;2022-11-20T02:16:56;97808.75;;;4.71;90.41
71996;BME280;59862;47.732;7.346;2022-11-20T02:19:29;97818.28;;;4.77;90.52
71996;BME280;59862;47.732;7.346;2022-11-20T02:22:17;97820.09;;;4.77;90.53
71996;BME280;59862;47.732;7.346;2022-11-20T02:24:45;97820.84;;;4.83;90.51
71996;BME280;59862;47.732;7.346;2022-11-20T02:27:15;97817.87;;;4.86;90.49
71996;BME280;59862;47.732;7.346;2022-11-20T02:32:30;97823.22;;;4.90;90.34
71996;BME280;59862;47.732;7.346;2022-11-20T02:34:53;97818.28;;;4.95;90.27
71996;BME280;59862;47.732;7.346;2022-11-20T02:37:22;97814.33;;;4.99;90.15
71996;BME280;59862;47.732;7.346;2022-11-20T02:39:51;97817.54;;;5.02;90.01
71996;BME280;59862;47.732;7.346;2022-11-20T02:42:19;97819.36;;;5.02;89.87
71996;BME280;59862;47.732;7.346;2022-11-20T02:44:46;97814.06;;;5.06;89.82
71996;BME280;59862;47.732;7.346;2022-11-20T02:47:14;97808.26;;;5.06;89.71
71996;BME280;59862;47.732;7.346;2022-11-20T02:49:41;97810.92;;;5.06;89.63
71996;BME280;59862;47.732;7.346;2022-11-20T02:52:08;97810.08;;;5.06;89.60
71996;BME280;59862;47.732;7.346;2022-11-20T02:54:36;97811.11;;;5.09;89.56
71996;BME280;59862;47.732;7.346;2022-11-20T02:57:03;97806.41;;;5.07;89.59
71996;BME280;59862;47.732;7.346;2022-11-20T02:59:31;97805.95;;;5.11;89.59
71996;BME280;59862;47.732;7.346;2022-11-20T03:01:58;97807.15;;;5.13;89.48
71996;BME280;59862;47.732;7.346;2022-11-20T03:04:26;97808.83;;;5.18;89.42
71996;BME280;59862;47.732;7.346;2022-11-20T03:06:53;97807.50;;;5.18;89.33
71996;BME280;59862;47.732;7.346;2022-11-20T03:09:21;97814.80;;;5.16;89.25
71996;BME280;59862;47.732;7.346;2022-11-20T03:11:49;97814.53;;;5.23;89.21
71996;BME280;59862;47.732;7.346;2022-11-20T03:14:16;97816.54;;;5.25;89.01
71996;BME280;59862;47.732;7.346;2022-11-20T03:16:44;97821.56;;;5.28;88.86
71996;BME280;59862;47.732;7.346;2022-11-20T03:19:12;97824.22;;;5.28;88.69
71996;BME280;59862;47.732;7.346;2022-11-20T03:21:40;97817.90;;;5.29;88.61
71996;BME280;59862;47.732;7.346;2022-11-20T03:24:08;97811.11;;;5.30;88.53
71996;BME280;59862;47.732;7.346;2022-11-20T03:26:35;97807.26;;;5.29;88.51
71996;BME280;59862;47.732;7.346;2022-11-20T03:29:04;97805.93;;;5.29;88.55
71996;BME280;59862;47.732;7.346;2022-11-20T03:31:35;97804.57;;;5.25;88.58
71996;BME280;59862;47.732;7.346;2022-11-20T03:34:03;97806.77;;;5.29;88.54
71996;BME280;59862;47.732;7.346;2022-11-20T03:36:31;97809.29;;;5.35;88.44
71996;BME280;59862;47.732;7.346;2022-11-20T03:38:59;97812.93;;;5.30;88.40
71996;BME280;59862;47.732;7.346;2022-11-20T03:41:29;97821.59;;;5.32;88.42
71996;BME280;59862;47.732;7.346;2022-11-20T03:43:59;97816.56;;;5.29;88.36
71996;BME280;59862;47.732;7.346;2022-11-20T03:46:27;97816.22;;;5.24;88.17
71996;BME280;59862;47.732;7.346;2022-11-20T03:48:55;97817.81;;;5.17;87.93
71996;BME280;59862;47.732;7.346;2022-11-20T03:51:25;97814.09;;;5.10;87.96
71996;BME280;59862;47.732;7.346;2022-11-20T03:53:55;97816.75;;;5.10;88.04
71996;BME280;59862;47.732;7.346;2022-11-20T03:56:29;97810.95;;;5.10;88.09
71996;BME280;59862;47.732;7.346;2022-11-20T03:58:53;97807.58;;;5.04;88.13
71996;BME280;59862;47.732;7.346;2022-11-20T04:01:24;97803.38;;;4.98;88.31
71996;BME280;59862;47.732;7.346;2022-11-20T04:03:53;97809.83;;;4.95;88.43
71996;BME280;59862;47.732;7.346;2022-11-20T04:06:24;97816.11;;;4.94;88.47
71996;BME280;59862;47.732;7.346;2022-11-20T04:08:54;97813.23;;;4.88;88.64
71996;BME280;59862;47.732;7.346;2022-11-20T04:11:24;97817.90;;;4.90;88.68
71996;BME280;59862;47.732;7.346;2022-11-20T04:13:54;97807.95;;;4.92;88.57
71996;BME280;59862;47.732;7.346;2022-11-20T04:16:24;97808.30;;;4.93;88.44
71996;BME280;59862;47.732;7.346;2022-11-20T04:18:57;97805.94;;;4.90;88.36
71996;BME280;59862;47.732;7.346;2022-11-20T04:21:26;97807.88;;;4.84;88.44
71996;BME280;59862;47.732;7.346;2022-11-20T04:23:55;97814.53;;;4.84;88.49
71996;BME280;59862;47.732;7.346;2022-11-20T04:26:27;97811.16;;;4.78;88.52
71996;BME280;59862;47.732;7.346;2022-11-20T04:28:56;97810.47;;;4.76;88.61
71996;BME280;59862;47.732;7.346;2022-11-20T04:31:27;97807.81;;;4.76;88.70
71996;BME280;59862;47.732;7.346;2022-11-20T04:33:55;97806.30;;;4.73;88.76
71996;BME280;59862;47.732;7.346;2022-11-20T04:36:24;97804.12;;;4.73;88.87
71996;BME280;59862;47.732;7.346;2022-11-20T04:38:54;97799.42;;;4.67;88.85
71996;BME280;59862;47.732;7.346;2022-11-20T04:41:24;97802.08;;;4.67;89.06
71996;BME280;59862;47.732;7.346;2022-11-20T04:43:57;97811.77;;;4.72;89.09
71996;BME280;59862;47.732;7.346;2022-11-20T04:46:34;97809.47;;;4.77;89.11
71996;BME280;59862;47.732;7.346;2022-11-20T04:49:02;97807.81;;;4.76;89.13
71996;BME280;59862;47.732;7.346;2022-11-20T04:51:30;97815.82;;;4.80;89.06
71996;BME280;59862;47.732;7.346;2022-11-20T04:53:58;97816.86;;;4.83;88.88
71996;BME280;59862;47.732;7.346;2022-11-20T04:56:26;97812.52;;;4.82;88.83
71996;BME280;59862;47.732;7.346;2022-11-20T04:58:53;97821.17;;;4.84;88.73
71996;BME280;59862;47.732;7.346;2022-11-20T05:01:23;97815.86;;;4.84;88.71
71996;BME280;59862;47.732;7.346;2022-11-20T05:03:51;97820.20;;;4.85;88.72
71996;BME280;59862;47.732;7.346;2022-11-20T05:06:21;97818.58;;;4.92;88.62
71996;BME280;59862;47.732;7.346;2022-11-20T05:08:49;97822.63;;;4.96;88.47
71996;BME280;59862;47.732;7.346;2022-11-20T05:11:19;97815.85;;;5.01;88.29
71996;BME280;59862;47.732;7.346;2022-11-20T05:13:48;97813.65;;;4.97;88.00
71996;BME280;59862;47.732;7.346;2022-11-20T05:16:21;97811.67;;;4.99;87.87
71996;BME280;59862;47.732;7.346;2022-11-20T05:18:50;97812.05;;;5.04;87.63
71996;BME280;59862;47.732;7.346;2022-11-20T05:21:18;97815.04;;;5.05;87.50
71996;BME280;59862;47.732;7.346;2022-11-20T05:23:46;97819.70;;;5.07;87.42
71996;BME280;59862;47.732;7.346;2022-11-20T05:26:16;97811.02;;;5.01;87.35
71996;BME280;59862;47.732;7.346;2022-11-20T05:28:45;97811.73;;;5.07;87.27
71996;BME280;59862;47.732;7.346;2022-11-20T05:31:15;97812.05;;;5.04;87.15
71996;BME280;59862;47.732;7.346;2022-11-20T05:33:44;97808.09;;;5.08;87.09
71996;BME280;59862;47.732;7.346;2022-11-20T05:36:13;97813.55;;;5.02;86.91
71996;BME280;59862;47.732;7.346;2022-11-20T05:38:41;97807.71;;;5.03;86.81
71996;BME280;59862;47.732;7.346;2022-11-20T05:41:19;97805.58;;;5.02;86.80
71996;BME280;59862;47.732;7.346;2022-11-20T05:43:47;97807.39;;;5.02;86.82
71996;BME280;59862;47.732;7.346;2022-11-20T05:46:17;97808.26;;;5.06;86.87
71996;BME280;59862;47.732;7.346;2022-11-20T05:48:45;97807.03;;;5.01;86.85
71996;BME280;59862;47.732;7.346;2022-11-20T05:51:16;97803.02;;;4.97;87.01
71996;BME280;59862;47.732;7.346;2022-11-20T05:53:44;97799.97;;;4.92;87.14
71996;BME280;59862;47.732;7.346;2022-11-20T05:56:14;97799.32;;;4.94;87.23
71996;BME280;59862;47.732;7.346;2022-11-20T05:58:43;97797.18;;;4.93;87.21
71996;BME280;59862;47.732;7.346;2022-11-20T06:01:16;97805.97;;;4.94;87.15
71996;BME280;59862;47.732;7.346;2022-11-20T06:03:44;97807.27;;;4.90;87.12
71996;BME280;59862;47.732;7.346;2022-11-20T06:06:14;97812.23;;;4.85;87.21
71996;BME280;59862;47.732;7.346;2022-11-20T06:08:43;97814.20;;;4.83;87.38
71996;BME280;59862;47.732;7.346;2022-11-20T06:11:12;97813.33;;;4.78;87.50
71996;BME280;59862;47.732;7.346;2022-11-20T06:13:41;97818.00;;;4.80;87.49
71996;BME280;59862;47.732;7.346;2022-11-20T06:16:11;97816.86;;;4.83;87.49
71996;BME280;59862;47.732;7.346;2022-11-20T06:18:39;97820.20;;;4.85;87.55
71996;BME280;59862;47.732;7.346;2022-11-20T06:21:10;97818.22;;;4.87;87.48
71996;BME280;59862;47.732;7.346;2022-11-20T06:23:38;97810.28;;;4.91;87.36
71996;BME280;59862;47.732;7.346;2022-11-20T06:26:07;97804.99;;;4.95;87.24
71996;BME280;59862;47.732;7.346;2022-11-20T06:28:36;97803.70;;;4.99;87.10
71996;BME280;59862;47.732;7.346;2022-11-20T06:31:04;97807.36;;;4.98;86.95
71996;BME280;59862;47.732;7.346;2022-11-20T06:33:32;97801.03;;;4.99;86.80
71996;BME280;59862;47.732;7.346;2022-11-20T06:36:01;97799.38;;;4.98;86.84
71996;BME280;59862;47.732;7.346;2022-11-20T06:38:29;97812.35;;;5.01;86.87
71996;BME280;59862;47.732;7.346;2022-11-20T06:40:57;97806.19;;;5.00;86.78
71996;BME280;59862;47.732;7.346;2022-11-20T06:43:24;97801.69;;;4.97;86.79
71996;BME280;59862;47.732;7.346;2022-11-20T06:45:54;97802.36;;;4.99;86.78
71996;BME280;59862;47.732;7.346;2022-11-20T06:48:23;97802.09;;;5.06;86.60
71996;BME280;59862;47.732;7.346;2022-11-20T06:50:51;97802.42;;;5.07;86.42
71996;BME280;59862;47.732;7.346;2022-11-20T06:53:19;97805.58;;;5.02;86.45
71996;BME280;59862;47.732;7.346;2022-11-20T06:55:47;97812.35;;;5.01;86.40
71996;BME280;59862;47.732;7.346;2022-11-20T06:58:16;97810.05;;;5.02;86.26
71996;BME280;59862;47.732;7.346;2022-11-20T07:00:44;97810.73;;;5.04;86.26
71996;BME280;59862;47.732;7.346;2022-11-20T07:03:12;97811.57;;;5.04;86.20
71996;BME280;59862;47.732;7.346;2022-11-20T07:05:40;97821.82;;;4.99;86.11
71996;BME280;59862;47.732;7.346;2022-11-20T07:08:09;97765.52;;;4.65;86.23
71996;BME280;59862;47.732;7.346;2022-11-20T07:10:36;97821.33;;;5.00;86.28
71996;BME280;59862;47.732;7.346;2022-11-20T07:13:04;97817.48;;;4.98;86.18
71996;BME280;59862;47.732;7.346;2022-11-20T07:15:33;97818.97;;;4.97;86.21
71996;BME280;59862;47.732;7.346;2022-11-20T07:18:01;97822.02;;;5.02;86.13
71996;BME280;59862;47.732;7.346;2022-11-20T07:20:28;97815.04;;;5.05;86.07
71996;BME280;59862;47.732;7.346;2022-11-20T07:22:57;97822.75;;;5.12;85.90
71996;BME280;59862;47.732;7.346;2022-11-20T07:25:26;97835.08;;;5.13;85.75
71996;BME280;59862;47.732;7.346;2022-11-20T07:27:58;97825.77;;;5.13;85.66
71996;BME280;59862;47.732;7.346;2022-11-20T07:30:27;97836.02;;;5.08;85.70
71996;BME280;59862;47.732;7.346;2022-11-20T07:32:56;97837.73;;;5.13;85.63
71996;BME280;59862;47.732;7.346;2022-11-20T07:35:24;97837.41;;;5.16;85.41
71996;BME280;59862;47.732;7.346;2022-11-20T07:37:52;97847.39;;;5.18;85.22
71996;BME280;59862;47.732;7.346;2022-11-20T07:40:20;97845.28;;;5.21;85.14
71996;BME280;59862;47.732;7.346;2022-11-20T07:42:52;97850.69;;;5.33;85.03
71996;BME280;59862;47.732;7.346;2022-11-20T07:45:22;97849.06;;;5.36;84.76
71996;BME280;59862;47.732;7.346;2022-11-20T07:47:50;97846.51;;;5.31;84.72
71996;BME280;59862;47.732;7.346;2022-11-20T07:50:19;97849.28;;;5.43;84.75
71996;BME280;59862;47.732;7.346;2022-11-20T07:52:47;97845.29;;;5.43;84.60
71996;BME280;59862;47.732;7.346;2022-11-20T07:55:15;97838.77;;;5.42;84.58
71996;BME280;59862;47.732;7.346;2022-11-20T07:57:43;97842.77;;;5.42;84.47
71996;BME280;59862;47.732;7.346;2022-11-20T08:00:11;97844.95;;;5.46;84.35
71996;BME280;59862;47.732;7.346;2022-11-20T08:02:41;97853.62;;;5.48;84.22
71996;BME280;59862;47.732;7.346;2022-11-20T08:05:09;97851.34;;;5.53;84.21
71996;BME280;59862;47.732;7.346;2022-11-20T08:07:38;97849.05;;;5.58;84.19
71996;BME280;59862;47.732;7.346;2022-11-20T08:10:08;97852.72;;;5.61;84.03
71996;BME280;59862;47.732;7.346;2022-11-20T08:12:36;97852.73;;;5.65;84.04
71996;BME280;59862;47.732;7.346;2022-11-20T08:15:21;97867.59;;;5.72;83.87
71996;BME280;59862;47.732;7.346;2022-11-20T08:17:49;97860.63;;;5.75;83.69
71996;BME280;59862;47.732;7.346;2022-11-20T08:20:16;97863.80;;;5.78;83.59
71996;BME280;59862;47.732;7.346;2022-11-20T08:22:43;97866.17;;;5.81;83.59
71996;BME280;59862;47.732;7.346;2022-11-20T08:25:11;97872.88;;;5.85;83.44
71996;BME280;59862;47.732;7.346;2022-11-20T08:27:38;97871.90;;;5.86;83.50
71996;BME280;59862;47.732;7.346;2022-11-20T08:30:07;97872.59;;;5.92;83.51
71996;BME280;59862;47.732;7.346;2022-11-20T08:32:34;97884.58;;;5.92;83.18
71996;BME280;59862;47.732;7.346;2022-11-20T08:35:04;97882.61;;;5.98;83.18
71996;BME280;59862;47.732;7.346;2022-11-20T08:37:32;97883.28;;;6.00;83.14
71996;BME280;59862;47.732;7.346;2022-11-20T08:39:59;97879.00;;;6.07;82.79
71996;BME280;59862;47.732;7.346;2022-11-20T08:42:27;97890.34;;;6.09;82.48
71996;BME280;59862;47.732;7.346;2022-11-20T08:44:54;97886.89;;;6.17;82.33
71996;BME280;59862;47.732;7.346;2022-11-20T08:47:21;97899.28;;;6.30;82.00
71996;BME280;59862;47.732;7.346;2022-11-20T08:49:49;97898.86;;;6.51;81.58
71996;BME280;59862;47.732;7.346;2022-11-20T08:52:16;97902.69;;;6.52;81.22
71996;BME280;59862;47.732;7.346;2022-11-20T08:54:43;97907.70;;;6.51;81.15
71996;BME280;59862;47.732;7.346;2022-11-20T08:57:11;97905.42;;;6.64;81.18
71996;BME280;59862;47.732;7.346;2022-11-20T08:59:38;97908.90;;;6.65;81.13
71996;BME280;59862;47.732;7.346;2022-11-20T09:02:06;97909.74;;;6.65;80.87
71996;BME280;59862;47.732;7.346;2022-11-20T09:04:33;97912.70;;;6.54;81.01
71996;BME280;59862;47.732;7.346;2022-11-20T09:07:01;97914.86;;;6.51;81.22
71996;BME280;59862;47.732;7.346;2022-11-20T09:09:29;97915.73;;;6.59;81.26
71996;BME280;59862;47.732;7.346;2022-11-20T09:11:57;97905.91;;;6.60;81.22
71996;BME280;59862;47.732;7.346;2022-11-20T09:14:24;97912.58;;;6.64;81.19
71996;BME280;59862;47.732;7.346;2022-11-20T09:16:53;97919.08;;;6.69;81.40
71996;BME280;59862;47.732;7.346;2022-11-20T09:19:21;97915.92;;;6.66;81.40
71996;BME280;59862;47.732;7.346;2022-11-20T09:21:48;97912.60;;;6.72;81.17
71996;BME280;59862;47.732;7.346;2022-11-20T09:24:16;97916.62;;;6.80;81.06
71996;BME280;59862;47.732;7.346;2022-11-20T09:26:44;97915.03;;;6.99;80.97
71996;BME280;59862;47.732;7.346;2022-11-20T09:29:11;97910.55;;;7.12;80.34
71996;BME280;59862;47.732;7.346;2022-11-20T09:31:39;97918.07;;;7.20;80.02
71996;BME280;59862;47.732;7.346;2022-11-20T09:34:06;97914.42;;;7.29;79.63
71996;BME280;59862;47.732;7.346;2022-11-20T09:36:34;97922.25;;;7.27;79.20
71996;BME280;59862;47.732;7.346;2022-11-20T09:39:01;97918.56;;;7.16;79.36
71996;BME280;59862;47.732;7.346;2022-11-20T09:55:15;97914.77;;;7.46;79.22
71996;BME280;59862;47.732;7.346;2022-11-20T09:57:45;97919.61;;;7.51;77.88
71996;BME280;59862;47.732;7.346;2022-11-20T10:00:15;97922.11;;;7.44;76.88
71996;BME280;59862;47.732;7.346;2022-11-20T10:03:01;97923.78;;;7.61;76.22
71996;BME280;59862;47.732;7.346;2022-11-20T10:05:39;97935.45;;;7.52;75.12
71996;BME280;59862;47.732;7.346;2022-11-20T10:08:29;97928.75;;;7.28;74.67
71996;BME280;59862;47.732;7.346;2022-11-20T10:11:06;97925.23;;;7.20;74.88
71996;BME280;59862;47.732;7.346;2022-11-20T10:14:03;97926.52;;;7.00;75.29
71996;BME280;59862;47.732;7.346;2022-11-20T10:19:04;97923.23;;;7.30;74.29
71996;BME280;59862;47.732;7.346;2022-11-20T10:21:54;97920.27;;;7.57;73.38
71996;BME280;59862;47.732;7.346;2022-11-20T10:24:44;97923.95;;;7.72;72.80
71996;BME280;59862;47.732;7.346;2022-11-20T10:30:13;97918.27;;;7.63;72.80
71996;BME280;59862;47.732;7.346;2022-11-20T10:32:46;97923.12;;;7.84;71.96
71996;BME280;59862;47.732;7.346;2022-11-20T10:35:37;97924.11;;;7.95;71.27
71996;BME280;59862;47.732;7.346;2022-11-20T10:38:09;97916.03;;;8.19;71.14
71996;BME280;59862;47.732;7.346;2022-11-20T10:40:44;97916.06;;;8.07;70.44
71996;BME280;59862;47.732;7.346;2022-11-20T10:43:50;97908.73;;;7.89;70.54
71996;BME280;59862;47.732;7.346;2022-11-20T10:46:05;97900.06;;;7.62;70.89
71996;BME280;59862;47.732;7.346;2022-11-20T10:48:34;97899.09;;;7.55;71.16
71996;BME280;59862;47.732;7.346;2022-11-20T10:56:37;97887.09;;;8.85;69.31
71996;BME280;59862;47.732;7.346;2022-11-20T10:59:15;97881.12;;;10.40;64.95
71996;BME280;59862;47.732;7.346;2022-11-20T11:01:42;97867.67;;;11.62;59.79
71996;BME280;59862;47.732;7.346;2022-11-20T11:07:20;97864.20;;;12.92;56.64
71996;BME280;59862;47.732;7.346;2022-11-20T11:09:54;97849.02;;;13.25;55.28
71996;BME280;59862;47.732;7.346;2022-11-20T11:12:24;97853.05;;;13.25;53.88
71996;BME280;59862;47.732;7.346;2022-11-20T11:14:59;97855.39;;;12.47;56.39
71996;BME280;59862;47.732;7.346;2022-11-20T11:17:28;97842.45;;;11.00;58.73
71996;BME280;59862;47.732;7.346;2022-11-20T11:20:01;97842.80;;;9.69;62.10
71996;BME280;59862;47.732;7.346;2022-11-20T11:22:31;97842.12;;;9.53;63.84
71996;BME280;59862;47.732;7.346;2022-11-20T11:25:00;97836.41;;;9.10;64.88
71996;BME280;59862;47.732;7.346;2022-11-20T11:27:27;97837.63;;;9.04;66.19
71996;BME280;59862;47.732;7.346;2022-11-20T11:30:15;97824.09;;;9.01;65.93
71996;BME280;59862;47.732;7.346;2022-11-20T11:32:44;97813.89;;;9.24;66.46
71996;BME280;59862;47.732;7.346;2022-11-20T11:35:20;97822.27;;;9.25;66.04
71996;BME280;59862;47.732;7.346;2022-11-20T11:37:49;97814.80;;;8.63;67.52
71996;BME280;59862;47.732;7.346;2022-11-20T11:40:18;97814.80;;;8.63;67.52
71996;BME280;59862;47.732;7.346;2022-11-20T11:42:57;97811.66;;;8.59;68.99
71996;BME280;59862;47.732;7.346;2022-11-20T11:45:17;97810.18;;;8.79;68.24
71996;BME280;59862;47.732;7.346;2022-11-20T11:47:46;97802.45;;;8.62;67.95
71996;BME280;59862;47.732;7.346;2022-11-20T11:50:23;97797.31;;;8.52;67.99
71996;BME280;59862;47.732;7.346;2022-11-20T11:53:03;97794.42;;;8.31;68.47
71996;BME280;59862;47.732;7.346;2022-11-20T11:55:39;97794.22;;;8.36;68.37
71996;BME280;59862;47.732;7.346;2022-11-20T11:58:14;97792.75;;;8.22;67.15
71996;BME280;59862;47.732;7.346;2022-11-20T12:00:45;97778.97;;;8.02;67.84
71996;BME280;59862;47.732;7.346;2022-11-20T12:03:17;97787.83;;;8.03;67.57
71996;BME280;59862;47.732;7.346;2022-11-20T12:05:47;97781.73;;;8.25;67.07
71996;BME280;59862;47.732;7.346;2022-11-20T12:08:32;97768.61;;;8.46;66.06
71996;BME280;59862;47.732;7.346;2022-11-20T12:11:06;97776.43;;;8.78;64.87
71996;BME280;59862;47.732;7.346;2022-11-20T12:13:53;97782.56;;;8.87;64.22
71996;BME280;59862;47.732;7.346;2022-11-20T12:16:22;97783.17;;;8.93;64.59
71996;BME280;59862;47.732;7.346;2022-11-20T12:18:51;97652.41;;;9.42;63.68
71996;BME280;59862;47.732;7.346;2022-11-20T12:21:49;97786.28;;;10.23;61.85
71996;BME280;59862;47.732;7.346;2022-11-20T12:29:54;97791.58;;;8.90;65.47
71996;BME280;59862;47.732;7.346;2022-11-20T12:32:40;97791.58;;;8.90;65.47
71996;BME280;59862;47.732;7.346;2022-11-20T12:35:29;97794.30;;;8.51;66.79
71996;BME280;59862;47.732;7.346;2022-11-20T12:43:25;97783.19;;;7.89;70.31
71996;BME280;59862;47.732;7.346;2022-11-20T12:49:22;97785.54;;;7.88;70.50
71996;BME280;59862;47.732;7.346;2022-11-20T12:51:51;97779.85;;;7.87;70.98
71996;BME280;59862;47.732;7.346;2022-11-20T12:56:57;97770.20;;;7.82;70.32
71996;BME280;59862;47.732;7.346;2022-11-20T12:59:58;97773.58;;;8.10;69.48
71996;BME280;59862;47.732;7.346;2022-11-20T13:02:29;97767.16;;;9.11;66.18
71996;BME280;59862;47.732;7.346;2022-11-20T13:07:32;97764.84;;;11.92;57.82
71996;BME280;59862;47.732;7.346;2022-11-20T13:10:01;97762.01;;;12.24;55.73
71996;BME280;59862;47.732;7.346;2022-11-20T13:12:38;97750.69;;;11.94;56.59
71996;BME280;59862;47.732;7.346;2022-11-20T13:18:02;97748.11;;;12.13;56.44
71996;BME280;59862;47.732;7.346;2022-11-20T13:20:21;97741.00;;;13.07;53.22
71996;BME280;59862;47.732;7.346;2022-11-20T13:22:51;97744.89;;;15.20;48.24
71996;BME280;59862;47.732;7.346;2022-11-20T13:25:29;97747.50;;;17.51;43.93
71996;BME280;59862;47.732;7.346;2022-11-20T13:28:00;97745.30;;;17.94;41.42
71996;BME280;59862;47.732;7.346;2022-11-20T13:30:29;97748.17;;;19.02;39.41
71996;BME280;59862;47.732;7.346;2022-11-20T13:36:00;97744.94;;;16.76;41.31
71996;BME280;59862;47.732;7.346;2022-11-20T13:38:23;97744.45;;;13.44;48.57
71996;BME280;59862;47.732;7.346;2022-11-20T13:40:56;97734.55;;;11.94;53.10
71996;BME280;59862;47.732;7.346;2022-11-20T13:43:42;97727.05;;;10.85;56.78
71996;BME280;59862;47.732;7.346;2022-11-20T13:46:10;97720.89;;;10.38;58.67
71996;BME280;59862;47.732;7.346;2022-11-20T13:48:43;97713.41;;;9.65;61.17
71996;BME280;59862;47.732;7.346;2022-11-20T13:51:14;97712.46;;;9.29;62.11
71996;BME280;59862;47.732;7.346;2022-11-20T13:56:49;97698.47;;;8.63;65.25
71996;BME280;59862;47.732;7.346;2022-11-20T14:01:55;97695.12;;;10.08;61.01
71996;BME280;59862;47.732;7.346;2022-11-20T14:04:37;97696.32;;;10.20;60.58
71996;BME280;59862;47.732;7.346;2022-11-20T14:07:09;97693.53;;;10.18;60.96
71996;BME280;59862;47.732;7.346;2022-11-20T14:09:37;97689.18;;;10.02;61.34
71996;BME280;59862;47.732;7.346;2022-11-20T14:12:14;97690.50;;;9.62;62.99
71996;BME280;59862;47.732;7.346;2022-11-20T14:14:35;97673.38;;;9.05;64.65
71996;BME280;59862;47.732;7.346;2022-11-20T14:19:53;97669.97;;;9.11;64.32
71996;BME280;59862;47.732;7.346;2022-11-20T14:22:23;97660.85;;;9.35;64.10
71996;BME280;59862;47.732;7.346;2022-11-20T14:27:44;97652.48;;;9.19;64.98
71996;BME280;59862;47.732;7.346;2022-11-20T14:30:14;97647.52;;;9.12;65.11
71996;BME280;59862;47.732;7.346;2022-11-20T14:32:45;97639.08;;;9.04;65.49
71996;BME280;59862;47.732;7.346;2022-11-20T14:35:30;97628.37;;;8.90;66.02